createdAt,value
2019-04-13T00:01:21.295Z,101736.90
2019-04-13T00:03:49.727Z,101738.01
2019-04-13T00:06:25.597Z,101733.89
2019-04-13T00:08:54.020Z,101740.70
2019-04-13T00:11:32.659Z,101742.05
2019-04-13T00:14:01.116Z,101744.50
2019-04-13T00:16:29.674Z,101734.13
2019-04-13T00:18:58.096Z,101734.28
2019-04-13T00:21:26.501Z,101726.13
2019-04-13T00:23:54.980Z,101731.20
2019-04-13T00:26:23.388Z,101727.55
2019-04-13T00:28:51.835Z,101727.16
2019-04-13T00:31:20.246Z,101726.61
2019-04-13T00:33:48.651Z,101727.32
2019-04-13T00:36:17.070Z,101730.17
2019-04-13T00:38:45.463Z,101722.56
2019-04-13T00:41:13.969Z,101720.27
2019-04-13T00:43:42.363Z,101715.67
2019-04-13T00:46:10.763Z,101717.11
2019-04-13T00:48:39.184Z,101721.37
2019-04-13T00:51:07.766Z,101719.64
2019-04-13T00:53:36.186Z,101720.35
2019-04-13T00:56:04.652Z,101722.30
2019-04-13T00:58:33.066Z,101716.59
2019-04-13T01:01:01.493Z,101716.91
2019-04-13T01:03:29.912Z,101716.13
2019-04-13T01:05:58.406Z,101717.31
2019-04-13T01:08:26.815Z,101715.17
2019-04-13T01:10:55.314Z,101712.48
2019-04-13T01:13:23.705Z,101710.98
2019-04-13T01:15:52.107Z,101717.23
2019-04-13T01:18:20.580Z,101708.60
2019-04-13T01:20:49.006Z,101704.41
2019-04-13T01:23:17.425Z,101707.73
2019-04-13T01:25:45.846Z,101706.94
2019-04-13T01:28:14.299Z,101705.04
2019-04-13T01:30:42.720Z,101710.39
2019-04-13T01:33:11.124Z,101708.84
2019-04-13T01:35:39.544Z,101704.53
2019-04-13T01:38:08.015Z,101704.84
2019-04-13T01:40:36.405Z,101701.92
2019-04-13T01:43:04.970Z,101710.23
2019-04-13T01:45:33.440Z,101707.92
2019-04-13T01:48:01.928Z,101698.43
2019-04-13T01:50:30.346Z,101691.39
2019-04-13T01:52:58.747Z,101694.40
2019-04-13T01:55:27.161Z,101693.60
2019-04-13T01:57:55.661Z,101691.35
2019-04-13T02:00:28.150Z,101688.03
2019-04-13T02:02:56.557Z,101683.28
2019-04-13T02:05:42.675Z,101679.44
2019-04-13T02:08:24.857Z,101685.22
2019-04-13T02:10:55.002Z,101684.39
2019-04-13T02:13:23.404Z,101680.91
2019-04-13T02:15:51.795Z,101682.95
2019-04-13T02:18:20.217Z,101682.24
2019-04-13T02:20:48.637Z,101686.47
2019-04-13T02:23:17.052Z,101686.94
2019-04-13T02:25:45.464Z,101687.02
2019-04-13T02:28:13.960Z,101681.16
2019-04-13T02:30:42.381Z,101678.63
2019-04-13T02:33:10.779Z,101686.69
2019-04-13T02:35:39.193Z,101688.07
2019-04-13T02:38:07.599Z,101681.27
2019-04-13T02:40:36.039Z,101684.09
2019-04-13T02:43:04.683Z,101678.05
2019-04-13T02:45:33.118Z,101679.81
2019-04-13T02:48:01.523Z,101675.71
2019-04-13T02:50:29.930Z,101679.20
2019-04-13T02:52:58.331Z,101677.65
2019-04-13T02:55:26.794Z,101686.31
2019-04-13T02:57:55.195Z,101681.64
2019-04-13T03:00:23.721Z,101681.36
2019-04-13T03:02:52.558Z,101681.36
2019-04-13T03:05:21.051Z,101682.15
2019-04-13T03:07:49.529Z,101682.15
2019-04-13T03:10:18.013Z,101680.88
2019-04-13T03:12:46.521Z,101684.37
2019-04-13T03:15:15.306Z,101681.67
2019-04-13T03:17:45.522Z,101683.41
2019-04-13T03:20:27.543Z,101685.47
2019-04-13T03:22:56.030Z,101681.98
2019-04-13T03:25:24.426Z,101678.89
2019-04-13T03:27:52.845Z,101679.68
2019-04-13T03:30:22.914Z,101673.58
2019-04-13T03:32:51.387Z,101672.96
2019-04-13T03:35:19.819Z,101673.61
2019-04-13T03:37:48.214Z,101673.61
2019-04-13T03:40:16.680Z,101675.72
2019-04-13T03:42:45.114Z,101673.69
2019-04-13T03:45:13.987Z,101675.41
2019-04-13T03:47:42.409Z,101675.09
2019-04-13T03:50:10.955Z,101675.33
2019-04-13T03:52:39.374Z,101676.81
2019-04-13T03:55:07.903Z,101681.25
2019-04-13T03:57:36.297Z,101682.18
2019-04-13T04:00:06.645Z,101679.34
2019-04-13T04:02:35.050Z,101681.02
2019-04-13T04:05:03.831Z,101676.66
2019-04-13T04:07:32.256Z,101678.85
2019-04-13T04:10:00.649Z,101676.58
2019-04-13T04:12:29.076Z,101681.48
2019-04-13T04:14:57.506Z,101680.61
2019-04-13T04:17:25.944Z,101683.03
2019-04-13T04:19:54.326Z,101678.28
2019-04-13T04:22:22.756Z,101685.66
2019-04-13T04:24:51.144Z,101685.66
2019-04-13T04:27:19.566Z,101684.64
2019-04-13T04:29:47.992Z,101686.61
2019-04-13T04:32:16.428Z,101690.97
2019-04-13T04:34:44.816Z,101688.66
2019-04-13T04:37:13.231Z,101688.48
2019-04-13T04:39:41.629Z,101687.14
2019-04-13T04:42:10.045Z,101688.80
2019-04-13T04:44:38.461Z,101688.88
2019-04-13T04:47:06.895Z,101688.67
2019-04-13T04:49:35.320Z,101683.75
2019-04-13T04:52:03.725Z,101685.93
2019-04-13T04:54:32.158Z,101684.97
2019-04-13T04:57:00.578Z,101687.11
2019-04-13T04:59:29.021Z,101689.07
2019-04-13T05:01:57.395Z,101691.86
2019-04-13T05:04:25.809Z,101695.17
2019-04-13T05:06:54.295Z,101692.08
2019-04-13T05:09:22.694Z,101695.31
2019-04-13T05:11:51.116Z,101699.28
2019-04-13T05:14:19.527Z,101699.19
2019-04-13T05:16:47.949Z,101698.89
2019-04-13T05:19:16.348Z,101700.89
2019-04-13T05:21:44.756Z,101697.88
2019-04-13T05:24:13.194Z,101697.41
2019-04-13T05:26:41.591Z,101703.72
2019-04-13T05:29:10.007Z,101708.69
2019-04-13T05:31:38.409Z,101703.94
2019-04-13T05:34:06.833Z,101712.51
2019-04-13T05:36:47.034Z,101710.59
2019-04-13T05:39:05.984Z,101712.11
2019-04-13T05:41:34.417Z,101713.38
2019-04-13T05:44:02.922Z,101716.59
2019-04-13T05:46:31.388Z,101715.13
2019-04-13T05:48:59.867Z,101711.16
2019-04-13T05:51:28.283Z,101717.38
2019-04-13T05:53:56.682Z,101723.88
2019-04-13T05:56:25.167Z,101723.48
2019-04-13T05:59:02.689Z,101719.78
2019-04-13T06:01:23.762Z,101733.50
2019-04-13T06:03:53.025Z,101726.80
2019-04-13T06:06:21.531Z,101727.45
2019-04-13T06:08:49.937Z,101732.12
2019-04-13T06:11:18.420Z,101728.59
2019-04-13T06:13:46.855Z,101734.04
2019-04-13T06:16:15.282Z,101730.03
2019-04-13T06:18:43.706Z,101733.65
2019-04-13T06:21:12.109Z,101733.95
2019-04-13T06:23:40.566Z,101729.47
2019-04-13T06:26:08.970Z,101730.12
2019-04-13T06:28:37.383Z,101735.17
2019-04-13T06:31:23.319Z,101734.00
2019-04-13T06:33:59.471Z,101733.00
2019-04-13T06:36:27.950Z,101739.02
2019-04-13T06:38:59.462Z,101737.58
2019-04-13T06:41:26.565Z,101736.14
2019-04-13T06:43:54.961Z,101739.63
2019-04-13T06:46:23.394Z,101737.84
2019-04-13T06:48:51.808Z,101730.44
2019-04-13T06:51:20.355Z,101729.13
2019-04-13T06:53:48.786Z,101726.50
2019-04-13T06:56:17.218Z,101729.91
2019-04-13T06:58:45.684Z,101727.77
2019-04-13T07:01:14.149Z,101733.66
2019-04-13T07:03:42.569Z,101729.95
2019-04-13T07:06:11.114Z,101730.22
2019-04-13T07:08:41.159Z,101724.06
2019-04-13T07:11:11.198Z,101722.09
2019-04-13T07:13:49.916Z,101716.51
2019-04-13T07:16:22.848Z,101720.45
2019-04-13T07:18:51.272Z,101724.51
2019-04-13T07:21:20.050Z,101720.25
2019-04-13T07:23:48.695Z,101723.00
2019-04-13T07:26:17.118Z,101724.20
2019-04-13T07:28:47.640Z,101719.00
2019-04-13T07:31:15.653Z,101717.87
2019-04-13T07:33:44.054Z,101716.45
2019-04-13T07:36:12.499Z,101717.61
2019-04-13T07:38:40.909Z,101719.12
2019-04-13T07:41:09.419Z,101716.98
2019-04-13T07:43:37.915Z,101724.18
2019-04-13T07:46:13.790Z,101713.80
2019-04-13T07:48:56.838Z,101714.13
2019-04-13T07:54:20.703Z,101718.22
2019-04-13T07:56:49.120Z,101716.55
2019-04-13T07:59:18.428Z,101711.41
2019-04-13T08:01:56.527Z,101715.61
2019-04-13T08:04:17.763Z,101706.59
2019-04-13T08:06:46.157Z,101714.42
2019-04-13T08:09:14.577Z,101712.45
2019-04-13T08:11:43.020Z,101708.25
2019-04-13T08:14:15.547Z,101711.06
2019-04-13T08:16:43.937Z,101714.38
2019-04-13T08:19:16.713Z,101714.09
2019-04-13T08:21:45.265Z,101705.38
2019-04-13T08:24:13.664Z,101703.64
2019-04-13T08:26:42.093Z,101708.70
2019-04-13T08:29:10.560Z,101700.86
2019-04-13T08:31:39.045Z,101707.36
2019-04-13T08:34:07.505Z,101712.27
2019-04-13T08:36:35.987Z,101707.04
2019-04-13T08:39:06.438Z,101706.44
2019-04-13T08:41:35.012Z,101717.92
2019-04-13T08:44:06.015Z,101712.34
2019-04-13T08:46:33.701Z,101711.27
2019-04-13T08:49:02.174Z,101708.95
2019-04-13T08:51:30.650Z,101706.99
2019-04-13T08:53:59.046Z,101704.37
2019-04-13T08:56:30.786Z,101698.98
2019-04-13T08:58:57.852Z,101704.35
2019-04-13T09:01:26.317Z,101701.34
2019-04-13T09:03:54.757Z,101699.85
2019-04-13T09:06:23.152Z,101710.61
2019-04-13T09:08:51.596Z,101696.03
2019-04-13T09:11:20.744Z,101699.44
2019-04-13T09:13:49.882Z,101694.84
2019-04-13T09:16:18.575Z,101699.05
2019-04-13T09:18:56.914Z,101696.64
2019-04-13T09:21:29.680Z,101701.81
2019-04-13T09:23:58.126Z,101703.66
2019-04-13T09:26:26.570Z,101701.44
2019-04-13T09:28:54.975Z,101695.97
2019-04-13T09:31:25.481Z,101698.71
2019-04-13T09:33:54.417Z,101690.45
2019-04-13T09:36:22.832Z,101689.03
2019-04-13T09:38:51.240Z,101692.64
2019-04-13T09:41:19.712Z,101688.13
2019-04-13T09:43:55.669Z,101681.37
2019-04-13T09:46:22.608Z,101674.53
2019-04-13T09:48:50.978Z,101674.48
2019-04-13T09:51:19.418Z,101675.52
2019-04-13T09:53:48.729Z,101665.52
2019-04-13T09:56:17.437Z,101663.98
2019-04-13T09:58:45.853Z,101678.84
2019-04-13T10:01:14.336Z,101677.27
2019-04-13T10:03:42.784Z,101675.59
2019-04-13T10:06:11.303Z,101682.95
2019-04-13T10:08:41.974Z,101681.14
2019-04-13T10:11:10.403Z,101672.00
2019-04-13T10:13:40.459Z,101677.50
2019-04-13T10:16:22.842Z,101676.48
2019-04-13T10:18:55.393Z,101685.98
2019-04-13T10:21:23.031Z,101678.23
2019-04-13T10:23:51.453Z,101668.05
2019-04-13T10:26:20.005Z,101676.00
2019-04-13T10:28:48.675Z,101669.41
2019-04-13T10:31:17.210Z,101665.47
2019-04-13T10:33:45.676Z,101668.81
2019-04-13T10:36:14.076Z,101670.23
2019-04-13T10:38:42.514Z,101669.41
2019-04-13T10:41:10.910Z,101665.56
2019-04-13T10:43:39.358Z,101665.90
2019-04-13T10:46:15.539Z,101662.92
2019-04-13T10:49:03.944Z,101662.91
2019-04-13T10:51:36.691Z,101654.23
2019-04-13T10:54:05.335Z,101657.15
2019-04-13T10:56:33.821Z,101650.21
2019-04-13T10:59:02.237Z,101653.95
2019-04-13T11:01:30.677Z,101648.69
2019-04-13T11:03:59.069Z,101646.34
2019-04-13T11:06:27.468Z,101644.41
2019-04-13T11:08:55.872Z,101641.89
2019-04-13T11:11:24.300Z,101643.53
2019-04-13T11:13:52.703Z,101638.72
2019-04-13T11:16:21.186Z,101632.03
2019-04-13T11:18:49.663Z,101631.30
2019-04-13T11:21:18.117Z,101629.70
2019-04-13T11:23:46.625Z,101625.78
2019-04-13T11:26:15.195Z,101626.41
2019-04-13T11:28:43.607Z,101621.34
2019-04-13T11:31:12.019Z,101622.06
2019-04-13T11:33:42.659Z,101621.42
2019-04-13T11:36:10.629Z,101627.45
2019-04-13T11:38:39.043Z,101615.99
2019-04-13T11:41:14.828Z,101618.08
2019-04-13T11:43:44.878Z,101614.62
2019-04-13T11:46:30.177Z,101615.18
2019-04-13T11:49:03.075Z,101606.55
2019-04-13T11:51:32.518Z,101608.23
2019-04-13T11:54:03.745Z,101610.16
2019-04-13T11:56:31.131Z,101602.04
2019-04-13T11:58:59.542Z,101592.76
2019-04-13T12:01:35.636Z,101585.25
2019-04-13T12:04:08.850Z,101587.19
2019-04-13T12:06:55.102Z,101580.52
2019-04-13T12:09:25.196Z,101588.88
2019-04-13T12:12:11.608Z,101592.41
2019-04-13T12:14:59.439Z,101590.64
2019-04-13T12:17:32.197Z,101584.55
2019-04-13T12:20:17.372Z,101584.07
2019-04-13T12:22:46.037Z,101580.40
2019-04-13T12:25:14.536Z,101574.86
2019-04-13T12:27:42.955Z,101564.32
2019-04-13T12:30:16.170Z,101567.39
2019-04-13T12:32:47.121Z,101582.27
2019-04-13T12:35:14.792Z,101571.95
2019-04-13T12:37:43.229Z,101570.16
2019-04-13T12:40:13.344Z,101560.02
2019-04-13T12:42:41.852Z,101566.05
2019-04-13T12:45:10.520Z,101574.54
2019-04-13T12:47:42.176Z,101564.48
2019-04-13T12:50:09.307Z,101577.31
2019-04-13T12:52:37.692Z,101585.24
2019-04-13T12:55:06.317Z,101579.03
2019-04-13T12:57:34.678Z,101575.29
2019-04-13T13:00:08.043Z,101571.02
2019-04-13T13:02:39.594Z,101575.91
2019-04-13T13:05:24.842Z,101567.20
2019-04-13T13:07:53.271Z,101557.47
2019-04-13T13:10:25.183Z,101557.02
2019-04-13T13:12:52.150Z,101562.75
2019-04-13T13:15:20.611Z,101561.06
2019-04-13T13:17:49.104Z,101552.29
2019-04-13T13:20:17.738Z,101537.98
2019-04-13T13:22:46.258Z,101540.42
2019-04-13T13:25:14.724Z,101541.06
2019-04-13T13:27:43.211Z,101532.61
2019-04-13T13:30:11.812Z,101542.59
2019-04-13T13:32:40.315Z,101546.81
2019-04-13T13:35:09.180Z,101537.52
2019-04-13T13:37:38.577Z,101550.34
2019-04-13T13:40:08.727Z,101546.89
2019-04-13T13:42:38.535Z,101548.91
2019-04-13T13:45:07.512Z,101550.48
2019-04-13T13:47:35.912Z,101561.60
2019-04-13T13:50:06.761Z,101564.56
2019-04-13T13:52:37.848Z,101566.23
2019-04-13T13:55:07.403Z,101560.30
2019-04-13T13:57:37.472Z,101562.47
2019-04-13T14:00:09.568Z,101547.34
2019-04-13T14:02:37.994Z,101556.23
2019-04-13T14:05:06.651Z,101552.45
2019-04-13T14:07:35.067Z,101557.30
2019-04-13T14:10:12.116Z,101549.44
2019-04-13T14:12:41.972Z,101274.75
2019-04-13T14:15:12.270Z,101553.45
2019-04-13T14:17:40.768Z,101551.03
2019-04-13T14:20:10.000Z,101552.33
2019-04-13T14:22:38.531Z,101548.49
2019-04-13T14:25:07.269Z,101542.09
2019-04-13T14:27:35.746Z,101543.25
2019-04-13T14:30:06.570Z,101540.95
2019-04-13T14:32:35.065Z,101544.24
2019-04-13T14:35:05.890Z,101538.82
2019-04-13T14:37:34.537Z,101539.93
2019-04-13T14:40:03.501Z,101535.48
2019-04-13T14:42:33.680Z,101521.45
2019-04-13T14:45:02.128Z,101530.75
2019-04-13T14:47:30.590Z,101520.96
2019-04-13T14:49:59.276Z,101515.95
2019-04-13T14:52:27.646Z,101514.94
2019-04-13T14:54:59.788Z,101507.09
2019-04-13T14:57:26.181Z,101510.72
2019-04-13T14:59:54.611Z,101513.73
2019-04-13T15:02:23.025Z,101512.07
2019-04-13T15:04:51.571Z,101509.72
2019-04-13T15:07:19.992Z,101514.42
2019-04-13T15:09:52.517Z,101512.34
2019-04-13T15:12:18.540Z,101505.11
2019-04-13T15:14:47.467Z,101503.05
2019-04-13T15:17:18.062Z,101505.70
2019-04-13T15:20:01.057Z,101504.01
2019-04-13T15:22:17.712Z,101506.59
2019-04-13T15:24:50.092Z,101500.44
2019-04-13T15:27:16.464Z,101506.14
2019-04-13T15:29:45.669Z,101499.72
2019-04-13T15:32:14.777Z,101506.74
2019-04-13T15:34:43.278Z,101502.87
2019-04-13T15:37:12.749Z,101503.36
2019-04-13T15:39:45.071Z,101498.81
2019-04-13T15:42:17.447Z,101499.86
2019-04-13T15:44:45.348Z,101498.23
2019-04-13T15:47:15.360Z,101497.06
2019-04-13T15:49:42.459Z,101499.58
2019-04-13T15:52:12.105Z,101503.81
2019-04-13T15:54:41.526Z,101504.09
2019-04-13T15:57:11.521Z,101514.89
2019-04-13T15:59:41.476Z,101518.41
2019-04-13T16:02:10.346Z,101514.50
2019-04-13T16:04:39.623Z,101524.36
2019-04-13T16:07:09.450Z,101522.31
2019-04-13T16:09:56.046Z,101524.88
2019-04-13T16:12:27.603Z,101529.52
2019-04-13T16:14:56.917Z,101530.70
2019-04-13T16:17:25.430Z,101530.51
2019-04-13T16:19:54.594Z,101527.70
2019-04-13T16:22:23.449Z,101529.06
2019-04-13T16:24:52.618Z,101524.78
2019-04-13T16:27:20.998Z,101537.64
2019-04-13T16:30:07.083Z,101495.95
2019-04-13T16:32:38.303Z,101529.89
2019-04-13T16:35:15.806Z,101527.20
2019-04-13T16:37:46.274Z,101529.84
2019-04-13T16:40:16.249Z,101524.39
2019-04-13T16:42:44.711Z,101522.64
2019-04-13T16:45:15.123Z,101523.27
2019-04-13T16:47:51.687Z,101523.42
2019-04-13T16:50:34.598Z,101516.47
2019-04-13T16:53:10.600Z,101514.23
2019-04-13T16:55:43.799Z,101506.72
2019-04-13T16:58:25.828Z,101520.06
2019-04-13T17:01:02.509Z,101519.69
2019-04-13T17:03:41.450Z,101520.72
2019-04-13T17:06:11.786Z,101515.52
2019-04-13T17:08:41.215Z,101521.79
2019-04-13T17:11:09.731Z,101516.33
2019-04-13T17:13:39.170Z,101512.34
2019-04-13T17:16:07.618Z,101517.84
2019-04-13T17:18:44.643Z,101510.53
2019-04-13T17:21:14.890Z,101516.09
2019-04-13T17:23:50.646Z,101516.44
2019-04-13T17:26:33.515Z,101512.27
2019-04-13T17:29:10.938Z,101517.80
2019-04-13T17:31:50.042Z,101523.23
2019-04-13T17:34:36.260Z,101521.20
2019-04-13T17:37:06.995Z,101521.05
2019-04-13T17:39:36.087Z,101524.50
2019-04-13T17:42:29.500Z,101520.80
2019-04-13T17:44:56.210Z,101526.55
2019-04-13T17:47:26.623Z,101527.45
2019-04-13T17:50:13.695Z,101528.11
2019-04-13T17:52:44.355Z,101535.75
2019-04-13T17:55:17.316Z,101537.78
2019-04-13T17:57:51.649Z,101541.26
2019-04-13T18:00:45.234Z,101540.33
2019-04-13T18:03:32.770Z,101543.00
2019-04-13T18:06:15.150Z,101537.79
2019-04-13T18:09:01.952Z,101542.72
2019-04-13T18:11:42.513Z,101547.37
2019-04-13T18:14:13.104Z,101544.77
2019-04-13T18:16:46.590Z,101544.52
2019-04-13T18:19:17.053Z,101545.87
2019-04-13T18:21:45.575Z,101553.56
2019-04-13T18:24:14.122Z,101557.12
2019-04-13T18:26:43.882Z,101556.47
2019-04-13T18:29:13.100Z,101556.66
2019-04-13T18:31:42.268Z,101562.68
2019-04-13T18:34:10.864Z,101565.24
2019-04-13T18:36:40.577Z,101568.23
2019-04-13T18:39:09.317Z,101572.17
2019-04-13T18:41:37.699Z,101572.84
2019-04-13T18:44:07.248Z,101571.68
2019-04-13T18:46:36.261Z,101575.25
2019-04-13T18:49:05.310Z,101567.48
2019-04-13T18:51:34.024Z,101575.30
2019-04-13T18:54:03.084Z,101579.30
2019-04-13T18:56:31.671Z,101573.63
2019-04-13T18:59:00.071Z,101574.49
2019-04-13T19:01:29.382Z,101572.19
2019-04-13T19:03:57.803Z,101576.80
2019-04-13T19:06:27.316Z,101584.50
2019-04-13T19:08:56.031Z,101582.10
2019-04-13T19:11:24.512Z,101583.25
2019-04-13T19:13:52.932Z,101589.24
2019-04-13T19:16:21.399Z,101591.12
2019-04-13T19:18:49.794Z,101594.12
2019-04-13T19:21:18.359Z,101600.61
2019-04-13T19:23:46.795Z,101598.73
2019-04-13T19:26:15.346Z,101608.86
2019-04-13T19:28:43.747Z,101605.59
2019-04-13T19:31:12.175Z,101607.80
2019-04-13T19:33:40.626Z,101605.73
2019-04-13T19:36:09.046Z,101582.21
2019-04-13T19:38:37.487Z,101609.13
2019-04-13T19:41:05.965Z,101605.80
2019-04-13T19:43:34.399Z,101605.32
2019-04-13T19:46:02.886Z,101607.86
2019-04-13T19:48:31.320Z,101607.72
2019-04-13T19:50:59.759Z,101610.37
2019-04-13T19:53:29.793Z,101603.59
2019-04-13T19:55:59.885Z,101604.17
2019-04-13T19:58:28.306Z,101603.84
2019-04-13T20:00:56.735Z,101602.78
2019-04-13T20:03:25.254Z,101606.41
2019-04-13T20:05:53.684Z,101593.72
2019-04-13T20:08:22.142Z,101609.27
2019-04-13T20:10:50.557Z,101596.73
2019-04-13T20:13:30.875Z,101591.52
2019-04-13T20:15:49.206Z,101583.95
2019-04-13T20:18:17.684Z,101592.83
2019-04-13T20:20:46.198Z,101588.09
2019-04-13T20:23:14.608Z,101593.45
2019-04-13T20:25:43.926Z,101592.97
2019-04-13T20:28:13.622Z,101585.41
2019-04-13T20:30:43.375Z,101593.56
2019-04-13T20:33:13.155Z,101595.08
2019-04-13T20:35:55.905Z,101593.02
2019-04-13T20:38:12.918Z,101591.60
2019-04-13T20:40:44.425Z,101591.09
2019-04-13T20:43:14.695Z,101593.70
2019-04-13T20:45:43.177Z,101594.98
2019-04-13T20:48:11.884Z,101594.12
2019-04-13T20:50:41.189Z,101587.31
2019-04-13T20:53:09.671Z,101581.77
2019-04-13T20:55:39.221Z,101581.47
2019-04-13T20:58:07.780Z,101585.41
2019-04-13T21:00:36.307Z,101589.14
2019-04-13T21:03:05.876Z,101583.50
2019-04-13T21:05:34.425Z,101581.47
2019-04-13T21:08:04.041Z,101582.80
2019-04-13T21:10:32.527Z,101581.59
2019-04-13T21:13:01.005Z,101574.23
2019-04-13T21:15:29.497Z,101576.70
2019-04-13T21:17:57.924Z,101570.91
2019-04-13T21:20:27.154Z,101573.84
2019-04-13T21:22:55.641Z,101576.30
2019-04-13T21:25:25.123Z,101573.14
2019-04-13T21:27:53.612Z,101577.73
2019-04-13T21:30:22.925Z,101578.61
2019-04-13T21:32:51.402Z,101579.63
2019-04-13T21:35:20.938Z,101582.09
2019-04-13T21:37:50.791Z,101583.03
2019-04-13T21:40:19.244Z,101580.20
2019-04-13T21:42:47.682Z,101581.06
2019-04-13T21:45:16.684Z,101577.09
2019-04-13T21:47:45.233Z,101578.61
2019-04-13T21:50:28.347Z,101575.60
2019-04-13T21:53:04.919Z,101571.87
2019-04-13T21:55:44.031Z,101576.61
2019-04-13T21:58:12.575Z,101579.00
2019-04-13T22:01:10.767Z,101570.75
2019-04-13T22:03:40.513Z,101574.57
2019-04-13T22:06:10.240Z,101572.36
2019-04-13T22:08:38.807Z,101571.55
2019-04-13T22:11:08.274Z,101574.55
2019-04-13T22:13:36.731Z,101563.87
2019-04-13T22:16:05.923Z,101568.72
2019-04-13T22:18:34.604Z,101571.26
2019-04-13T22:21:03.028Z,101573.31
2019-04-13T22:23:32.475Z,101567.77
2019-04-13T22:26:01.007Z,101576.14
2019-04-13T22:28:34.367Z,101565.44
2019-04-13T22:31:04.947Z,101576.91
2019-04-13T22:33:33.483Z,101577.86
2019-04-13T22:36:07.058Z,101578.64
2019-04-13T22:38:35.536Z,101578.33
2019-04-13T22:41:04.915Z,101574.93
2019-04-13T22:43:34.720Z,101576.88
2019-04-13T22:46:04.259Z,101580.70
2019-04-13T22:48:40.130Z,101576.27
2019-04-13T22:51:27.187Z,101575.44
2019-04-13T22:54:10.036Z,101583.42
2019-04-13T22:56:40.243Z,101580.78
2019-04-13T22:59:09.712Z,101574.84
2019-04-13T23:01:46.225Z,101580.58
2019-04-13T23:04:14.727Z,101580.42
2019-04-13T23:06:43.148Z,101580.31
2019-04-13T23:09:12.761Z,101577.72
2019-04-13T23:11:41.356Z,101586.50
2019-04-13T23:14:11.050Z,101583.97
2019-04-13T23:16:39.559Z,101584.86
2019-04-13T23:19:09.047Z,101587.39
2019-04-13T23:21:37.586Z,101586.27
2019-04-13T23:24:06.072Z,101586.86
2019-04-13T23:26:34.481Z,101584.72
2019-04-13T23:29:04.151Z,101580.75
2019-04-13T23:31:32.674Z,101579.73
2019-04-13T23:34:01.100Z,101580.50
2019-04-13T23:36:29.507Z,101570.53
2019-04-13T23:38:57.942Z,101573.85
2019-04-13T23:41:26.343Z,101570.46
2019-04-13T23:43:54.763Z,101572.66
2019-04-13T23:46:24.258Z,101566.11
2019-04-13T23:48:52.770Z,101560.66
2019-04-13T23:51:21.165Z,101562.39
2019-04-13T23:53:49.589Z,101561.41
2019-04-13T23:56:19.636Z,101548.14
2019-04-13T23:58:49.679Z,101548.37
